Time;durP1;ratioP1;P1;durP2;ratioP2;P2;SDS_P1;SDS_P2;PMS_P1;PMS_P2;Temp;Humidity;BMP_temperature;BMP_pressure;BME280_temperature;BME280_humidity;BME280_pressure;Samples;Min_cycle;Max_cycle;Signal;HPM_P1;HPM_P2
2021/12/22 00:01:56;;;;;;;45.10;40.90;;;;;;;;;;5057385;28;20188;-91
2021/12/22 00:04:25;;;;;;;43.88;39.47;;;;;;;;;;5056596;28;20196;-91
2021/12/22 00:06:53;;;;;;;42.92;38.53;;;;;;;;;;5056375;28;20556;-91
2021/12/22 00:09:20;;;;;;;44.90;39.85;;;;;;;;;;5056067;28;20712;-92
2021/12/22 00:11:49;;;;;;;40.47;36.72;;;;;;;;;;5055963;28;20227;-91
2021/12/22 00:14:16;;;;;;;37.80;34.53;;;;;;;;;;5037940;28;20196;-91
2021/12/22 00:16:44;;;;;;;36.78;33.20;;;;;;;;;;5038188;28;20658;-91
2021/12/22 00:19:13;;;;;;;32.92;30.05;;;;;;;;;;5055389;28;20705;-91
2021/12/22 00:21:40;;;;;;;30.88;28.00;;;;;;;;;;5038853;28;20203;-91
2021/12/22 00:24:08;;;;;;;30.92;27.95;;;;;;;;;;5055487;28;20211;-90
2021/12/22 00:26:35;;;;;;;34.50;31.75;;;;;;;;;;5038075;28;20602;-91
2021/12/22 00:29:03;;;;;;;38.63;28.60;;;;;;;;;;5056254;28;20184;-91
2021/12/22 00:31:38;;;;;;;29.20;26.50;;;;;;;;;;5056100;28;20233;-91
2021/12/22 00:34:14;;;;;;;31.05;28.25;;;;;;;;;;5056589;28;20637;-90
2021/12/22 00:36:43;;;;;;;31.30;28.30;;;;;;;;;;5067027;28;20249;-91
2021/12/22 00:39:11;;;;;;;30.23;27.35;;;;;;;;;;5071271;28;20200;-91
2021/12/22 00:41:39;;;;;;;29.67;25.77;;;;;;;;;;5055579;28;20552;-91
2021/12/22 00:44:06;;;;;;;29.25;26.38;;;;;;;;;;5038127;28;20207;-91
2021/12/22 00:46:34;;;;;;;28.73;26.15;;;;;;;;;;5055647;28;20208;-91
2021/12/22 00:49:01;;;;;;;27.23;24.77;;;;;;;;;;5038113;28;20211;-91
2021/12/22 00:51:29;;;;;;;29.42;26.60;;;;;;;;;;5055243;28;20220;-91
2021/12/22 00:53:58;;;;;;;39.78;35.75;;;;;;;;;;5055008;28;20233;-91
2021/12/22 00:56:25;;;;;;;34.00;30.30;;;;;;;;;;5055212;28;20203;-91
2021/12/22 00:58:53;;;;;;;42.05;38.13;;;;;;;;;;5055018;28;20204;-91
2021/12/22 01:01:21;;;;;;;31.58;29.27;;;;;;;;;;5037324;28;20233;-92
2021/12/22 01:03:48;;;;;;;29.83;27.25;;;;;;;;;;5055083;28;20196;-91
2021/12/22 01:06:15;;;;;;;36.08;32.70;;;;;;;;;;5055117;28;20199;-91
2021/12/22 01:08:43;;;;;;;34.30;31.50;;;;;;;;;;5054865;28;20207;-91
2021/12/22 01:11:12;;;;;;;27.73;25.13;;;;;;;;;;5054716;28;20188;-91
2021/12/22 01:13:39;;;;;;;34.45;31.58;;;;;;;;;;5054605;28;20200;-91
2021/12/22 01:16:07;;;;;;;34.30;31.60;;;;;;;;;;5053820;28;20204;-91
2021/12/22 01:18:36;;;;;;;26.42;24.67;;;;;;;;;;5054689;28;20315;-91
2021/12/22 01:21:12;;;;;;;29.73;27.13;;;;;;;;;;5053407;28;20609;-91
2021/12/22 01:23:51;;;;;;;28.75;26.05;;;;;;;;;;5054571;28;20192;-91
2021/12/22 01:26:20;;;;;;;26.60;24.50;;;;;;;;;;5054413;28;20670;-91
2021/12/22 01:28:47;;;;;;;26.65;24.55;;;;;;;;;;5054873;28;20212;-91
2021/12/22 01:31:16;;;;;;;24.85;22.63;;;;;;;;;;5052244;28;20204;-91
2021/12/22 01:33:43;;;;;;;27.45;24.95;;;;;;;;;;5054157;28;20262;-91
2021/12/22 01:36:11;;;;;;;28.60;26.48;;;;;;;;;;5054397;28;20265;-91
2021/12/22 01:38:39;;;;;;;25.80;23.73;;;;;;;;;;5054201;28;20630;-91
2021/12/22 01:41:06;;;;;;;27.58;24.73;;;;;;;;;;5053385;28;20208;-91
2021/12/22 01:43:35;;;;;;;24.75;22.95;;;;;;;;;;5054113;28;20188;-90
2021/12/22 01:46:33;;;;;;;24.85;23.08;;;;;;;;;;5054190;28;20196;-91
2021/12/22 01:49:10;;;;;;;25.02;23.10;;;;;;;;;;5093812;28;20229;-91
2021/12/22 01:51:43;;;;;;;25.17;23.05;;;;;;;;;;5094301;28;20650;-91
2021/12/22 01:54:13;;;;;;;23.20;21.52;;;;;;;;;;5094573;28;20187;-91
2021/12/22 01:56:42;;;;;;;24.55;22.17;;;;;;;;;;5094396;28;20183;-91
2021/12/22 01:59:11;;;;;;;23.05;21.65;;;;;;;;;;5076144;28;20648;-91
2021/12/22 02:01:40;;;;;;;26.52;24.08;;;;;;;;;;5094572;28;20255;-91
2021/12/22 02:04:10;;;;;;;24.08;22.35;;;;;;;;;;5095091;28;20271;-91
2021/12/22 02:06:38;;;;;;;23.23;21.67;;;;;;;;;;5096624;28;20564;-91
2021/12/22 02:09:05;;;;;;;22.42;21.02;;;;;;;;;;5097391;28;20572;-91
2021/12/22 02:11:33;;;;;;;22.13;20.52;;;;;;;;;;5097388;28;20639;-91
2021/12/22 02:14:03;;;;;;;24.00;22.00;;;;;;;;;;5102150;28;20198;-92
2021/12/22 02:16:36;;;;;;;29.70;27.48;;;;;;;;;;5097848;28;20218;-91
2021/12/22 02:19:05;;;;;;;28.92;26.83;;;;;;;;;;5099006;28;20222;-91
2021/12/22 02:21:40;;;;;;;23.27;21.85;;;;;;;;;;5095102;28;20238;-91
2021/12/22 02:24:08;;;;;;;24.08;22.63;;;;;;;;;;5094791;28;20201;-90
2021/12/22 02:26:39;;;;;;;28.98;27.33;;;;;;;;;;5093716;28;20198;-92
2021/12/22 02:29:18;;;;;;;28.25;26.00;;;;;;;;;;5095331;28;20191;-91
2021/12/22 02:31:49;;;;;;;28.38;26.13;;;;;;;;;;5094247;28;20317;-91
2021/12/22 02:34:17;;;;;;;29.08;27.17;;;;;;;;;;5097841;28;20187;-91
2021/12/22 02:36:51;;;;;;;27.27;25.17;;;;;;;;;;5094515;28;20559;-91
2021/12/22 02:39:18;;;;;;;24.85;23.40;;;;;;;;;;5094854;28;20226;-92
2021/12/22 02:41:46;;;;;;;25.80;24.08;;;;;;;;;;5093924;28;20202;-91
2021/12/22 02:44:13;;;;;;;26.50;24.70;;;;;;;;;;5099531;28;20659;-92
2021/12/22 02:46:41;;;;;;;32.78;30.63;;;;;;;;;;5079671;28;20255;-91
2021/12/22 02:49:09;;;;;;;36.58;33.30;;;;;;;;;;5080656;28;20203;-91
2021/12/22 02:51:37;;;;;;;42.33;38.47;;;;;;;;;;5080995;28;20198;-92
2021/12/22 02:54:12;;;;;;;59.60;41.70;;;;;;;;;;5097766;28;20191;-91
2021/12/22 02:56:52;;;;;;;42.28;38.13;;;;;;;;;;5098854;28;20201;-91
2021/12/22 02:59:38;;;;;;;45.05;40.90;;;;;;;;;;5098841;28;20202;-91
2021/12/22 03:02:16;;;;;;;46.15;41.65;;;;;;;;;;5100362;28;20198;-91
2021/12/22 03:04:50;;;;;;;40.15;36.35;;;;;;;;;;5099716;28;20705;-91
2021/12/22 03:07:19;;;;;;;33.53;30.67;;;;;;;;;;5097744;28;20186;-91
2021/12/22 03:10:00;;;;;;;43.95;39.60;;;;;;;;;;5098768;28;20225;-92
2021/12/22 03:12:28;;;;;;;50.67;45.92;;;;;;;;;;5098125;28;20222;-92
2021/12/22 03:14:56;;;;;;;28.48;26.42;;;;;;;;;;5097749;28;20195;-91
2021/12/22 03:17:23;;;;;;;38.15;34.80;;;;;;;;;;5098375;28;20202;-90
2021/12/22 03:19:51;;;;;;;42.45;38.63;;;;;;;;;;5101495;28;20249;-91
2021/12/22 03:22:20;;;;;;;42.08;37.97;;;;;;;;;;5097113;28;20195;-91
2021/12/22 03:24:51;;;;;;;41.60;37.60;;;;;;;;;;5080276;28;20281;-91
2021/12/22 03:27:18;;;;;;;50.25;41.40;;;;;;;;;;5099250;28;20213;-92
2021/12/22 03:29:46;;;;;;;53.95;49.65;;;;;;;;;;5099103;28;20187;-91
2021/12/22 03:32:13;;;;;;;86.70;56.08;;;;;;;;;;5080224;28;20797;-92
2021/12/22 03:34:41;;;;;;;125.95;58.72;;;;;;;;;;5080560;28;20202;-92
2021/12/22 03:37:09;;;;;;;59.33;43.47;;;;;;;;;;5099080;28;20225;-92
2021/12/22 03:39:37;;;;;;;36.95;33.63;;;;;;;;;;5098464;28;20198;-92
2021/12/22 03:42:08;;;;;;;40.28;36.53;;;;;;;;;;5105716;28;20187;-91
2021/12/22 03:44:35;;;;;;;47.20;42.25;;;;;;;;;;5104065;28;20182;-91
2021/12/22 03:47:03;;;;;;;189.32;79.90;;;;;;;;;;5099382;28;20239;-91
2021/12/22 03:49:30;;;;;;;61.28;44.45;;;;;;;;;;5079172;28;20203;-92
2021/12/22 03:51:58;;;;;;;61.90;45.80;;;;;;;;;;5097106;28;20214;-92
2021/12/22 03:54:25;;;;;;;47.28;42.20;;;;;;;;;;5096496;28;20203;-92
2021/12/22 03:56:52;;;;;;;38.03;34.47;;;;;;;;;;5079427;28;20206;-91
2021/12/22 03:59:22;;;;;;;49.88;44.75;;;;;;;;;;5079692;28;20199;-92
2021/12/22 04:01:50;;;;;;;39.25;36.00;;;;;;;;;;5098064;28;20598;-92
2021/12/22 04:04:18;;;;;;;80.75;47.28;;;;;;;;;;5098182;28;20664;-91
2021/12/22 04:06:46;;;;;;;34.42;32.08;;;;;;;;;;5096560;28;20205;-91
2021/12/22 04:09:14;;;;;;;37.63;34.55;;;;;;;;;;5098644;28;20550;-92
2021/12/22 04:11:42;;;;;;;35.80;32.85;;;;;;;;;;5096416;28;20206;-92
2021/12/22 04:14:10;;;;;;;39.08;35.83;;;;;;;;;;5078756;28;20230;-92
2021/12/22 04:16:40;;;;;;;60.08;54.40;;;;;;;;;;5099132;28;20200;-92
2021/12/22 04:19:07;;;;;;;35.25;32.20;;;;;;;;;;5097028;28;20581;-92
2021/12/22 04:21:34;;;;;;;46.53;41.40;;;;;;;;;;5096933;28;20671;-92
2021/12/22 04:24:02;;;;;;;202.88;74.43;;;;;;;;;;5097163;28;20621;-92
2021/12/22 04:26:31;;;;;;;34.90;32.15;;;;;;;;;;5096217;28;20248;-92
2021/12/22 04:28:59;;;;;;;37.90;34.83;;;;;;;;;;5096508;28;20190;-92
2021/12/22 04:31:26;;;;;;;53.05;45.05;;;;;;;;;;5096377;28;20229;-92
2021/12/22 04:33:55;;;;;;;49.70;44.13;;;;;;;;;;5095971;28;20230;-92
2021/12/22 04:36:22;;;;;;;52.17;46.63;;;;;;;;;;5096238;28;20203;-92
2021/12/22 04:38:50;;;;;;;52.97;47.17;;;;;;;;;;5096037;28;20232;-92
2021/12/22 04:41:17;;;;;;;48.97;43.72;;;;;;;;;;5096843;28;20183;-92
2021/12/22 04:43:45;;;;;;;50.08;44.05;;;;;;;;;;5096222;28;20636;-92
2021/12/22 04:46:12;;;;;;;50.28;43.38;;;;;;;;;;5078586;28;20187;-92
2021/12/22 04:48:40;;;;;;;50.08;45.08;;;;;;;;;;5096014;28;20241;-92
2021/12/22 04:51:21;;;;;;;72.07;50.92;;;;;;;;;;5096995;28;20276;-91
2021/12/22 04:53:52;;;;;;;247.43;81.47;;;;;;;;;;5095144;28;20707;-91
2021/12/22 04:56:20;;;;;;;65.22;51.30;;;;;;;;;;5095920;28;20202;-92
2021/12/22 04:58:47;;;;;;;52.25;46.53;;;;;;;;;;5097108;28;20206;-92
2021/12/22 05:01:14;;;;;;;43.65;39.97;;;;;;;;;;5095977;28;20202;-91
2021/12/22 05:03:42;;;;;;;41.35;37.60;;;;;;;;;;5095873;28;20260;-91
2021/12/22 05:06:11;;;;;;;49.08;42.60;;;;;;;;;;5094698;28;20275;-92
2021/12/22 05:08:38;;;;;;;50.67;45.78;;;;;;;;;;5095429;28;20229;-91
2021/12/22 05:11:06;;;;;;;43.55;39.55;;;;;;;;;;5095694;28;20183;-92
2021/12/22 05:13:35;;;;;;;55.92;49.78;;;;;;;;;;5095449;28;20245;-92
2021/12/22 05:16:04;;;;;;;45.10;41.00;;;;;;;;;;5094949;28;20637;-92
2021/12/22 05:18:49;;;;;;;45.67;41.45;;;;;;;;;;5095382;28;20226;-91
2021/12/22 05:21:18;;;;;;;42.25;38.60;;;;;;;;;;5095881;28;20256;-92
2021/12/22 05:23:45;;;;;;;39.67;36.17;;;;;;;;;;5095618;28;20202;-92
2021/12/22 05:26:12;;;;;;;39.60;36.55;;;;;;;;;;5095176;28;20981;-92
2021/12/22 05:28:40;;;;;;;50.08;44.63;;;;;;;;;;5095485;28;20209;-92
2021/12/22 05:31:07;;;;;;;48.45;43.20;;;;;;;;;;5094863;28;20201;-91
2021/12/22 05:33:35;;;;;;;42.80;39.38;;;;;;;;;;5096267;28;20226;-91
2021/12/22 05:36:02;;;;;;;54.38;47.22;;;;;;;;;;5094946;28;20191;-92
2021/12/22 05:38:31;;;;;;;47.95;43.60;;;;;;;;;;5077000;28;20198;-92
2021/12/22 05:40:59;;;;;;;60.40;53.95;;;;;;;;;;5077293;28;20228;-91
2021/12/22 05:43:26;;;;;;;52.25;47.00;;;;;;;;;;5095434;28;20569;-92
2021/12/22 05:45:53;;;;;;;53.65;48.35;;;;;;;;;;5094723;28;20644;-92
2021/12/22 05:48:21;;;;;;;51.08;45.72;;;;;;;;;;5094538;28;20256;-92
2021/12/22 05:50:51;;;;;;;50.10;45.80;;;;;;;;;;5095303;28;20202;-92
2021/12/22 05:53:18;;;;;;;45.95;41.90;;;;;;;;;;5095854;28;20646;-91
2021/12/22 05:55:47;;;;;;;60.75;52.35;;;;;;;;;;5096478;28;20187;-91
2021/12/22 05:58:15;;;;;;;47.92;43.75;;;;;;;;;;5096675;28;20216;-92
2021/12/22 06:00:42;;;;;;;45.63;41.95;;;;;;;;;;5096875;28;20256;-91
2021/12/22 06:03:11;;;;;;;45.67;41.42;;;;;;;;;;5087219;28;20550;-91
2021/12/22 06:05:39;;;;;;;38.88;35.97;;;;;;;;;;5055281;28;20223;-91
2021/12/22 06:08:06;;;;;;;41.97;38.45;;;;;;;;;;5055908;28;20708;-92
2021/12/22 06:10:34;;;;;;;44.10;40.88;;;;;;;;;;5065868;28;20243;-92
2021/12/22 06:13:04;;;;;;;39.63;36.10;;;;;;;;;;5066158;28;20245;-91
2021/12/22 06:15:31;;;;;;;47.72;41.70;;;;;;;;;;5054419;28;20634;-90
2021/12/22 06:17:59;;;;;;;47.42;41.53;;;;;;;;;;5054900;28;20227;-92
2021/12/22 06:20:27;;;;;;;338.08;164.70;;;;;;;;;;5060215;28;20211;-92
2021/12/22 06:22:55;;;;;;;448.77;255.25;;;;;;;;;;5056981;28;20282;-92
2021/12/22 06:25:23;;;;;;;271.85;71.18;;;;;;;;;;5053894;28;20215;-91
2021/12/22 06:27:52;;;;;;;269.88;69.20;;;;;;;;;;5054930;28;20577;-92
2021/12/22 06:30:21;;;;;;;316.70;72.22;;;;;;;;;;5054918;28;20246;-91
2021/12/22 06:32:49;;;;;;;118.78;57.25;;;;;;;;;;5053569;28;20646;-92
2021/12/22 06:35:16;;;;;;;117.88;55.58;;;;;;;;;;5053882;28;20713;-92
2021/12/22 06:37:44;;;;;;;144.73;60.33;;;;;;;;;;5053950;28;20192;-91
2021/12/22 06:40:12;;;;;;;109.82;54.38;;;;;;;;;;5053664;28;20200;-92
2021/12/22 06:42:40;;;;;;;117.95;56.10;;;;;;;;;;5053797;28;20196;-92
2021/12/22 06:45:09;;;;;;;326.98;109.22;;;;;;;;;;5055648;28;20188;-92
2021/12/22 06:47:38;;;;;;;204.27;68.80;;;;;;;;;;5065049;28;20643;-92
2021/12/22 06:50:06;;;;;;;213.02;70.30;;;;;;;;;;5093501;28;20206;-93
2021/12/22 06:52:33;;;;;;;277.13;71.78;;;;;;;;;;5093942;28;20244;-91
2021/12/22 06:55:00;;;;;;;299.10;76.43;;;;;;;;;;5093716;28;20218;-92
2021/12/22 06:57:30;;;;;;;319.48;78.15;;;;;;;;;;5093856;28;20198;-91
2021/12/22 06:59:58;;;;;;;324.15;79.22;;;;;;;;;;5094142;28;20198;-92
2021/12/22 07:02:26;;;;;;;294.35;74.50;;;;;;;;;;5094513;28;20186;-93
2021/12/22 07:04:55;;;;;;;297.85;76.10;;;;;;;;;;5094459;28;20195;-93
2021/12/22 07:07:23;;;;;;;331.80;78.55;;;;;;;;;;5094720;28;20593;-91
2021/12/22 07:09:50;;;;;;;284.73;73.47;;;;;;;;;;5093297;28;20252;-90
2021/12/22 07:12:17;;;;;;;311.60;77.15;;;;;;;;;;5075987;28;20203;-90
2021/12/22 07:14:45;;;;;;;334.63;80.63;;;;;;;;;;5092941;28;20230;-91
2021/12/22 07:17:12;;;;;;;315.77;79.35;;;;;;;;;;5093584;28;20210;-91
2021/12/22 07:19:40;;;;;;;313.88;80.30;;;;;;;;;;5093668;28;20199;-91
2021/12/22 07:22:08;;;;;;;351.58;81.85;;;;;;;;;;5093908;28;20187;-92
2021/12/22 07:24:36;;;;;;;355.05;84.00;;;;;;;;;;5093447;28;20202;-91
2021/12/22 07:27:03;;;;;;;348.98;82.28;;;;;;;;;;5093421;28;20233;-91
2021/12/22 07:29:31;;;;;;;352.77;79.88;;;;;;;;;;5094491;28;20187;-94
2021/12/22 07:31:58;;;;;;;345.60;80.53;;;;;;;;;;5082042;28;20202;-95
2021/12/22 07:34:30;;;;;;;343.08;81.65;;;;;;;;;;5098187;28;20214;-94
2021/12/22 07:37:05;;;;;;;344.17;80.10;;;;;;;;;;5098612;28;20621;-95
2021/12/22 07:39:34;;;;;;;339.42;81.30;;;;;;;;;;5099490;28;20247;-93
2021/12/22 07:42:01;;;;;;;343.67;82.75;;;;;;;;;;5098969;28;20331;-95
2021/12/22 07:44:28;;;;;;;348.98;82.90;;;;;;;;;;5097174;28;20198;-95
2021/12/22 07:46:56;;;;;;;336.77;83.05;;;;;;;;;;5096563;28;20194;-95
2021/12/22 07:49:23;;;;;;;340.42;81.20;;;;;;;;;;5097089;28;20648;-95
2021/12/22 07:51:51;;;;;;;320.95;79.82;;;;;;;;;;5078520;28;20606;-94
2021/12/22 07:54:18;;;;;;;340.10;81.43;;;;;;;;;;5078588;28;20717;-94
2021/12/22 07:56:47;;;;;;;352.75;84.60;;;;;;;;;;5096794;28;20194;-95
2021/12/22 07:59:14;;;;;;;323.05;81.55;;;;;;;;;;5096498;28;20187;-96
2021/12/22 08:01:41;;;;;;;153.82;60.90;;;;;;;;;;5096725;28;20206;-91
2021/12/22 08:04:09;;;;;;;192.35;66.30;;;;;;;;;;5096975;28;20918;-95
2021/12/22 08:06:39;;;;;;;196.02;66.72;;;;;;;;;;5098351;28;20206;-93
2021/12/22 08:09:06;;;;;;;194.73;68.70;;;;;;;;;;5097757;28;20221;-94
2021/12/22 08:11:33;;;;;;;214.73;70.75;;;;;;;;;;5096027;28;20202;-94
2021/12/22 08:14:03;;;;;;;187.80;68.10;;;;;;;;;;5095698;28;20218;-93
2021/12/22 08:16:30;;;;;;;202.25;67.13;;;;;;;;;;5096103;28;20202;-93
2021/12/22 08:18:57;;;;;;;211.23;74.70;;;;;;;;;;5101503;28;20219;-96
2021/12/22 08:21:25;;;;;;;177.63;65.15;;;;;;;;;;5096326;28;20187;-93
2021/12/22 08:23:52;;;;;;;195.90;69.72;;;;;;;;;;5077649;28;20606;-94
2021/12/22 08:26:19;;;;;;;188.15;69.60;;;;;;;;;;5096014;28;20202;-90
2021/12/22 08:28:49;;;;;;;136.77;61.72;;;;;;;;;;5095291;28;20601;-95
2021/12/22 08:31:17;;;;;;;156.90;65.55;;;;;;;;;;5077572;28;20199;-96
2021/12/22 08:33:46;;;;;;;143.02;62.97;;;;;;;;;;5096115;28;20223;-96
2021/12/22 08:39:00;;;;;;;124.05;60.67;;;;;;;;;;5095697;28;20209;-95
2021/12/22 08:41:28;;;;;;;184.63;69.47;;;;;;;;;;5095526;28;20227;-96
2021/12/22 08:43:56;;;;;;;168.00;67.32;;;;;;;;;;5078926;28;20539;-95
2021/12/22 08:46:26;;;;;;;164.57;67.68;;;;;;;;;;5095714;28;20240;-95
2021/12/22 08:48:53;;;;;;;154.07;63.53;;;;;;;;;;5095142;28;20231;-95
2021/12/22 08:51:22;;;;;;;125.57;61.15;;;;;;;;;;5095635;28;20187;-95
2021/12/22 08:53:49;;;;;;;78.88;47.35;;;;;;;;;;5095198;28;20253;-95
2021/12/22 08:56:17;;;;;;;111.15;58.13;;;;;;;;;;5095296;28;20202;-95
2021/12/22 08:58:44;;;;;;;96.80;55.05;;;;;;;;;;5095652;28;20206;-96
2021/12/22 09:01:11;;;;;;;27.27;25.17;;;;;;;;;;5095339;28;20207;-96
2021/12/22 09:03:40;;;;;;;47.47;41.22;;;;;;;;;;5077856;28;20190;-95
2021/12/22 09:06:08;;;;;;;25.33;23.48;;;;;;;;;;5077290;28;20249;-95
2021/12/22 09:08:35;;;;;;;26.15;24.10;;;;;;;;;;5077725;28;20249;-94
2021/12/22 09:11:02;;;;;;;26.73;24.55;;;;;;;;;;5095738;28;20199;-95
2021/12/22 09:13:30;;;;;;;34.03;31.23;;;;;;;;;;5095546;28;20202;-96
2021/12/22 09:15:57;;;;;;;33.50;31.15;;;;;;;;;;5094919;28;20282;-86
2021/12/22 09:18:25;;;;;;;26.10;23.98;;;;;;;;;;5094401;28;20721;-87
2021/12/22 09:20:54;;;;;;;26.58;24.45;;;;;;;;;;5094448;28;20969;-87
2021/12/22 09:23:21;;;;;;;25.52;23.38;;;;;;;;;;5094483;28;20244;-88
2021/12/22 09:25:48;;;;;;;25.48;23.23;;;;;;;;;;5095832;28;20198;-92
2021/12/22 09:28:16;;;;;;;24.90;22.83;;;;;;;;;;5061134;28;20195;-88
2021/12/22 09:30:45;;;;;;;25.65;23.60;;;;;;;;;;5094721;28;20186;-86
2021/12/22 09:33:14;;;;;;;25.90;23.95;;;;;;;;;;5094334;28;20203;-86
2021/12/22 09:35:41;;;;;;;25.10;23.15;;;;;;;;;;5093950;28;20256;-88
2021/12/22 09:38:10;;;;;;;24.95;23.05;;;;;;;;;;5094314;28;20199;-94
2021/12/22 09:40:38;;;;;;;27.05;24.70;;;;;;;;;;5094362;28;20190;-90
2021/12/22 09:43:05;;;;;;;24.75;23.05;;;;;;;;;;5094485;28;20199;-89
2021/12/22 09:45:36;;;;;;;25.83;24.10;;;;;;;;;;5095451;28;20190;-94
2021/12/22 09:48:29;;;;;;;28.15;26.15;;;;;;;;;;5094145;28;20707;-92
2021/12/22 09:52:16;;;;;;;25.75;23.95;;;;;;;;;;5076144;28;20203;-89
2021/12/22 09:53:46;;;;;;;24.73;23.00;;;;;;;;;;5124067;22;20297;-94
2021/12/22 09:56:14;;;;;;;25.90;24.08;;;;;;;;;;5071725;28;20206;-95
2021/12/22 09:58:42;;;;;;;26.55;24.23;;;;;;;;;;5074441;28;20278;-93
2021/12/22 10:01:10;;;;;;;33.53;31.17;;;;;;;;;;5074251;28;20592;-94
2021/12/22 10:03:38;;;;;;;53.38;47.30;;;;;;;;;;5056102;28;20610;-94
2021/12/22 10:06:06;;;;;;;58.95;50.58;;;;;;;;;;5074030;28;20369;-94
2021/12/22 10:08:35;;;;;;;52.33;46.58;;;;;;;;;;5073983;28;20537;-92
2021/12/22 10:11:06;;;;;;;57.70;49.10;;;;;;;;;;5073851;28;20195;-92
2021/12/22 10:13:35;;;;;;;56.55;48.80;;;;;;;;;;5073665;28;20183;-93
2021/12/22 10:16:11;;;;;;;50.00;44.65;;;;;;;;;;5055750;28;20319;-93
2021/12/22 10:18:38;;;;;;;37.55;34.47;;;;;;;;;;5073818;28;20222;-93
2021/12/22 10:21:15;;;;;;;46.75;42.15;;;;;;;;;;5073719;28;20257;-93
2021/12/22 10:23:44;;;;;;;48.22;43.47;;;;;;;;;;5051600;28;20199;-87
2021/12/22 10:26:16;;;;;;;52.95;45.95;;;;;;;;;;5073421;28;20634;-94
2021/12/22 10:28:48;;;;;;;32.92;30.80;;;;;;;;;;5073788;28;20184;-95
2021/12/22 10:31:15;;;;;;;40.60;37.55;;;;;;;;;;5054701;28;20200;-87
2021/12/22 10:33:43;;;;;;;49.47;45.03;;;;;;;;;;5073991;28;20191;-88
2021/12/22 10:36:12;;;;;;;56.58;50.92;;;;;;;;;;5073057;28;20240;-87
2021/12/22 10:38:40;;;;;;;40.05;36.70;;;;;;;;;;5055747;28;20199;-95
2021/12/22 10:41:09;;;;;;;48.95;44.33;;;;;;;;;;5074131;28;20195;-95
2021/12/22 10:43:41;;;;;;;49.92;45.53;;;;;;;;;;5073681;28;20194;-84
2021/12/22 10:46:14;;;;;;;31.33;28.95;;;;;;;;;;5072435;28;20184;-87
2021/12/22 10:51:30;;;;;;;47.47;43.40;;;;;;;;;;5073381;28;20613;-93
2021/12/22 10:53:58;;;;;;;44.35;40.13;;;;;;;;;;5071845;28;20763;-80
2021/12/22 10:56:28;;;;;;;24.80;22.90;;;;;;;;;;5072041;28;20195;-95
2021/12/22 10:59:08;;;;;;;42.78;39.67;;;;;;;;;;5073685;28;20203;-82
2021/12/22 11:01:36;;;;;;;48.00;43.70;;;;;;;;;;5072999;28;20192;-81
2021/12/22 11:04:06;;;;;;;51.45;46.42;;;;;;;;;;5073649;28;20632;-82
2021/12/22 11:06:35;;;;;;;52.30;47.20;;;;;;;;;;5075784;28;20279;-81
2021/12/22 11:09:03;;;;;;;48.08;43.63;;;;;;;;;;5075835;28;20203;-80
2021/12/22 11:11:36;;;;;;;31.13;28.80;;;;;;;;;;5075661;28;20203;-82
2021/12/22 11:14:22;;;;;;;45.75;41.47;;;;;;;;;;5075176;28;20206;-82
2021/12/22 11:16:55;;;;;;;44.58;40.92;;;;;;;;;;5075240;28;20660;-84
2021/12/22 11:19:23;;;;;;;54.80;49.05;;;;;;;;;;5075729;28;20192;-83
2021/12/22 11:22:01;;;;;;;50.70;45.88;;;;;;;;;;5075390;28;20620;-82
2021/12/22 11:24:29;;;;;;;57.67;51.72;;;;;;;;;;5075342;28;20222;-82
2021/12/22 11:26:57;;;;;;;62.60;51.33;;;;;;;;;;5075298;28;20711;-82
2021/12/22 11:29:24;;;;;;;63.20;53.47;;;;;;;;;;5075370;28;20200;-80
2021/12/22 11:31:52;;;;;;;60.20;54.00;;;;;;;;;;5075115;28;20231;-80
2021/12/22 11:34:22;;;;;;;58.15;52.30;;;;;;;;;;5074864;28;20278;-82
2021/12/22 11:36:50;;;;;;;54.25;48.92;;;;;;;;;;5075188;28;20286;-81
2021/12/22 11:39:18;;;;;;;52.40;47.15;;;;;;;;;;5075333;28;20200;-81
2021/12/22 11:41:55;;;;;;;55.17;49.53;;;;;;;;;;5075232;28;20192;-82
2021/12/22 11:44:23;;;;;;;63.92;56.78;;;;;;;;;;5075132;28;20202;-82
2021/12/22 11:46:51;;;;;;;57.10;51.63;;;;;;;;;;5074685;28;20653;-81
2021/12/22 11:49:21;;;;;;;65.28;58.22;;;;;;;;;;5075252;28;20190;-82
2021/12/22 11:51:48;;;;;;;54.53;49.38;;;;;;;;;;5074865;28;20196;-80
2021/12/22 11:54:16;;;;;;;59.88;53.35;;;;;;;;;;5074814;28;20231;-84
2021/12/22 11:56:45;;;;;;;52.22;47.00;;;;;;;;;;5074958;28;20199;-83
2021/12/22 11:59:29;;;;;;;59.55;53.40;;;;;;;;;;5075206;28;20196;-84
2021/12/22 12:02:15;;;;;;;38.00;34.67;;;;;;;;;;5074731;28;20295;-81
2021/12/22 12:04:44;;;;;;;42.35;38.78;;;;;;;;;;5074349;28;20192;-81
2021/12/22 12:07:12;;;;;;;32.55;30.17;;;;;;;;;;5074813;28;20188;-82
2021/12/22 12:09:46;;;;;;;31.73;28.77;;;;;;;;;;5074287;28;20563;-82
2021/12/22 12:12:28;;;;;;;29.80;26.60;;;;;;;;;;5056371;28;20625;-82
2021/12/22 12:15:07;;;;;;;27.42;24.90;;;;;;;;;;5073098;28;20227;-82
2021/12/22 12:23:27;;;;;;;27.77;25.10;;;;;;;;;;5074929;28;20194;-85
2021/12/22 12:25:54;;;;;;;28.35;25.40;;;;;;;;;;5075479;28;20280;-84
2021/12/22 12:28:22;;;;;;;27.52;25.42;;;;;;;;;;5074324;28;20270;-83
2021/12/22 12:30:51;;;;;;;27.42;24.55;;;;;;;;;;5073851;28;20594;-83
2021/12/22 12:33:22;;;;;;;27.60;25.15;;;;;;;;;;5074306;28;20192;-82
2021/12/22 12:35:55;;;;;;;26.90;24.60;;;;;;;;;;5073942;28;20258;-83
2021/12/22 12:38:25;;;;;;;26.45;24.30;;;;;;;;;;5074031;28;20200;-83
2021/12/22 12:41:13;;;;;;;28.10;25.77;;;;;;;;;;5073905;28;20196;-83
2021/12/22 12:43:56;;;;;;;26.95;24.95;;;;;;;;;;5073837;28;20188;-84
2021/12/22 12:46:29;;;;;;;26.38;24.38;;;;;;;;;;5058237;28;20260;-84
2021/12/22 12:48:57;;;;;;;32.22;28.88;;;;;;;;;;5073874;28;20210;-83
2021/12/22 12:51:30;;;;;;;120.68;72.60;;;;;;;;;;5074062;28;20658;-83
2021/12/22 12:53:59;;;;;;;135.48;77.43;;;;;;;;;;5055963;28;20244;-84
2021/12/22 12:56:31;;;;;;;130.15;74.82;;;;;;;;;;5073718;28;20700;-84
2021/12/22 12:58:59;;;;;;;144.30;79.90;;;;;;;;;;5073731;28;20192;-84
2021/12/22 13:01:41;;;;;;;140.73;79.18;;;;;;;;;;5073723;28;20198;-84
2021/12/22 13:04:20;;;;;;;154.45;80.72;;;;;;;;;;5072745;28;20191;-83
2021/12/22 13:06:49;;;;;;;125.18;75.45;;;;;;;;;;5055599;28;20206;-83
2021/12/22 13:09:26;;;;;;;116.65;68.13;;;;;;;;;;5073649;28;20191;-85
2021/12/22 13:11:58;;;;;;;149.65;78.88;;;;;;;;;;5073564;28;20192;-83
2021/12/22 13:17:13;;;;;;;119.20;72.97;;;;;;;;;;5073394;28;20582;-84
2021/12/22 13:19:41;;;;;;;92.72;69.50;;;;;;;;;;5073734;28;20195;-84
2021/12/22 13:22:20;;;;;;;83.28;59.55;;;;;;;;;;5073628;28;20241;-84
2021/12/22 13:24:48;;;;;;;108.50;72.60;;;;;;;;;;5054496;28;20203;-84
2021/12/22 13:27:28;;;;;;;116.78;72.88;;;;;;;;;;5072336;28;20190;-84
2021/12/22 13:30:05;;;;;;;107.75;72.28;;;;;;;;;;5073519;28;20187;-83
2021/12/22 13:32:32;;;;;;;71.50;59.10;;;;;;;;;;5073241;28;20204;-83
2021/12/22 13:34:59;;;;;;;81.38;66.55;;;;;;;;;;5073154;28;20249;-83
2021/12/22 13:37:29;;;;;;;74.70;64.80;;;;;;;;;;5072850;28;20672;-84
2021/12/22 13:39:57;;;;;;;114.22;71.38;;;;;;;;;;5072933;28;20290;-83
2021/12/22 13:42:24;;;;;;;104.47;71.13;;;;;;;;;;5073022;28;20187;-84
2021/12/22 13:44:51;;;;;;;82.93;64.43;;;;;;;;;;5072787;28;20665;-82
2021/12/22 13:47:19;;;;;;;118.10;75.70;;;;;;;;;;5073195;28;20198;-84
2021/12/22 13:49:46;;;;;;;94.03;68.70;;;;;;;;;;5072998;28;20203;-83
2021/12/22 13:52:14;;;;;;;140.95;79.57;;;;;;;;;;5072730;28;20633;-83
2021/12/22 13:54:42;;;;;;;153.07;82.28;;;;;;;;;;5072471;28;20284;-84
2021/12/22 13:57:10;;;;;;;107.53;72.68;;;;;;;;;;5072562;28;20216;-83
2021/12/22 13:59:40;;;;;;;150.05;82.32;;;;;;;;;;5072775;28;20203;-82
2021/12/22 14:02:08;;;;;;;120.95;70.65;;;;;;;;;;5072420;28;20672;-83
2021/12/22 14:04:36;;;;;;;198.30;87.25;;;;;;;;;;5072204;28;20213;-83
2021/12/22 14:07:10;;;;;;;108.60;76.40;;;;;;;;;;5072439;28;20298;-82
2021/12/22 14:09:44;;;;;;;119.25;75.43;;;;;;;;;;5072496;28;20199;-82
2021/12/22 14:12:13;;;;;;;178.55;83.93;;;;;;;;;;5072309;28;20192;-83
2021/12/22 14:14:44;;;;;;;163.40;82.05;;;;;;;;;;5072318;28;20275;-83
2021/12/22 14:17:20;;;;;;;208.25;87.32;;;;;;;;;;5072228;28;20289;-83
2021/12/22 14:19:59;;;;;;;176.82;84.35;;;;;;;;;;5072341;28;20201;-82
2021/12/22 14:22:28;;;;;;;181.85;89.47;;;;;;;;;;5072009;28;20270;-82
2021/12/22 14:24:58;;;;;;;200.10;86.70;;;;;;;;;;5072154;28;20633;-83
2021/12/22 14:27:36;;;;;;;210.98;88.68;;;;;;;;;;5072356;28;20253;-82
2021/12/22 14:30:05;;;;;;;181.10;87.53;;;;;;;;;;5072073;28;20195;-82
2021/12/22 14:32:35;;;;;;;204.80;87.18;;;;;;;;;;5054056;28;20323;-83
2021/12/22 14:35:04;;;;;;;207.60;88.45;;;;;;;;;;5054616;28;20552;-82
2021/12/22 14:37:32;;;;;;;206.05;88.35;;;;;;;;;;5071882;28;20196;-81
2021/12/22 14:40:01;;;;;;;220.68;84.65;;;;;;;;;;5071696;28;20253;-82
2021/12/22 14:42:31;;;;;;;199.73;86.65;;;;;;;;;;5071894;28;20241;-83